sensor_id;sensor_type;location;lat;lon;timestamp;pressure;altitude;pressure_sealevel;temperature;humidity
21273;BME280;36726;52.328;10.552;2022-11-20T00:01:21;100305.94;;;-0.04;86.34
21273;BME280;36726;52.328;10.552;2022-11-20T00:03:48;100307.88;;;0.00;85.83
21273;BME280;36726;52.328;10.552;2022-11-20T00:06:17;100301.94;;;0.03;85.88
21273;BME280;36726;52.328;10.552;2022-11-20T00:08:45;100299.34;;;0.03;85.30
21273;BME280;36726;52.328;10.552;2022-11-20T00:11:19;100294.00;;;0.00;85.22
21273;BME280;36726;52.328;10.552;2022-11-20T00:13:48;100296.50;;;-0.02;85.37
21273;BME280;36726;52.328;10.552;2022-11-20T00:16:18;100290.19;;;-0.07;85.12
21273;BME280;36726;52.328;10.552;2022-11-20T00:18:45;100294.34;;;-0.10;84.78
21273;BME280;36726;52.328;10.552;2022-11-20T00:21:14;100288.09;;;-0.14;84.80
21273;BME280;36726;52.328;10.552;2022-11-20T00:23:42;100293.09;;;-0.18;84.85
21273;BME280;36726;52.328;10.552;2022-11-20T00:26:12;100286.75;;;-0.23;84.73
21273;BME280;36726;52.328;10.552;2022-11-20T00:28:40;100284.00;;;-0.26;84.91
21273;BME280;36726;52.328;10.552;2022-11-20T00:31:12;100290.69;;;-0.31;84.65
21273;BME280;36726;52.328;10.552;2022-11-20T00:33:39;100281.75;;;-0.36;85.09
21273;BME280;36726;52.328;10.552;2022-11-20T00:36:08;100287.69;;;-0.39;84.60
21273;BME280;36726;52.328;10.552;2022-11-20T00:38:35;100287.53;;;-0.42;84.48
21273;BME280;36726;52.328;10.552;2022-11-20T00:41:07;100283.88;;;-0.45;84.98
21273;BME280;36726;52.328;10.552;2022-11-20T00:43:35;100288.00;;;-0.49;84.78
21273;BME280;36726;52.328;10.552;2022-11-20T00:46:03;100280.31;;;-0.47;84.97
21273;BME280;36726;52.328;10.552;2022-11-20T00:48:30;100286.50;;;-0.45;84.98
21273;BME280;36726;52.328;10.552;2022-11-20T00:50:57;100289.88;;;-0.46;84.99
21273;BME280;36726;52.328;10.552;2022-11-20T00:53:25;100281.13;;;-0.48;84.81
21273;BME280;36726;52.328;10.552;2022-11-20T00:55:59;100282.81;;;-0.49;84.55
21273;BME280;36726;52.328;10.552;2022-11-20T00:58:30;100281.03;;;-0.50;84.60
21273;BME280;36726;52.328;10.552;2022-11-20T01:01:09;100280.97;;;-0.51;84.83
21273;BME280;36726;52.328;10.552;2022-11-20T01:03:39;100280.97;;;-0.51;85.11
21273;BME280;36726;52.328;10.552;2022-11-20T01:06:10;100282.75;;;-0.50;85.06
21273;BME280;36726;52.328;10.552;2022-11-20T01:08:38;100287.13;;;-0.49;84.94
21273;BME280;36726;52.328;10.552;2022-11-20T01:11:08;100279.50;;;-0.46;84.67
21273;BME280;36726;52.328;10.552;2022-11-20T01:13:36;100272.66;;;-0.44;85.15
21273;BME280;36726;52.328;10.552;2022-11-20T01:18:31;100271.94;;;-0.42;84.51
21273;BME280;36726;52.328;10.552;2022-11-20T01:21:06;100272.81;;;-0.41;84.55
21273;BME280;36726;52.328;10.552;2022-11-20T01:23:35;100279.16;;;-0.36;84.89
21273;BME280;36726;52.328;10.552;2022-11-20T01:26:08;100274.03;;;-0.35;84.34
21273;BME280;36726;52.328;10.552;2022-11-20T01:28:36;100275.09;;;-0.31;84.29
21273;BME280;36726;52.328;10.552;2022-11-20T01:31:12;100273.59;;;-0.26;84.20
21273;BME280;36726;52.328;10.552;2022-11-20T01:33:40;100269.53;;;-0.21;84.90
21273;BME280;36726;52.328;10.552;2022-11-20T01:36:08;100254.25;;;-0.15;84.02
21273;BME280;36726;52.328;10.552;2022-11-20T01:38:35;100251.84;;;-0.11;84.34
21273;BME280;36726;52.328;10.552;2022-11-20T01:41:03;100247.03;;;-0.03;84.04
21273;BME280;36726;52.328;10.552;2022-11-20T01:43:30;100259.38;;;0.01;83.90
21273;BME280;36726;52.328;10.552;2022-11-20T01:46:18;100245.72;;;0.05;83.91
21273;BME280;36726;52.328;10.552;2022-11-20T01:51:37;100249.75;;;0.16;83.80
21273;BME280;36726;52.328;10.552;2022-11-20T01:54:08;100241.25;;;0.20;83.48
21273;BME280;36726;52.328;10.552;2022-11-20T01:56:41;100243.19;;;0.24;83.31
21273;BME280;36726;52.328;10.552;2022-11-20T01:59:13;100234.72;;;0.28;83.53
21273;BME280;36726;52.328;10.552;2022-11-20T02:01:42;100232.41;;;0.34;83.54
21273;BME280;36726;52.328;10.552;2022-11-20T02:04:10;100235.28;;;0.40;83.25
21273;BME280;36726;52.328;10.552;2022-11-20T02:06:48;100235.44;;;0.43;82.95
21273;BME280;36726;52.328;10.552;2022-11-20T02:09:16;100232.00;;;0.44;82.65
21273;BME280;36726;52.328;10.552;2022-11-20T02:11:43;100225.03;;;0.43;82.70
21273;BME280;36726;52.328;10.552;2022-11-20T02:14:10;100232.84;;;0.43;82.27
21273;BME280;36726;52.328;10.552;2022-11-20T02:16:40;100225.91;;;0.44;82.26
21273;BME280;36726;52.328;10.552;2022-11-20T02:19:37;100223.25;;;0.42;82.33
21273;BME280;36726;52.328;10.552;2022-11-20T02:22:14;100222.56;;;0.46;82.43
21273;BME280;36726;52.328;10.552;2022-11-20T02:24:43;100227.03;;;0.49;82.36
21273;BME280;36726;52.328;10.552;2022-11-20T02:27:13;100216.69;;;0.50;82.50
21273;BME280;36726;52.328;10.552;2022-11-20T02:32:27;100227.38;;;0.56;82.16
21273;BME280;36726;52.328;10.552;2022-11-20T02:34:55;100219.50;;;0.55;82.03
21273;BME280;36726;52.328;10.552;2022-11-20T02:37:22;100219.56;;;0.56;81.95
21273;BME280;36726;52.328;10.552;2022-11-20T02:39:51;100218.59;;;0.54;82.02
21273;BME280;36726;52.328;10.552;2022-11-20T02:42:18;100224.63;;;0.53;81.98
21273;BME280;36726;52.328;10.552;2022-11-20T02:44:45;100220.28;;;0.52;81.53
21273;BME280;36726;52.328;10.552;2022-11-20T02:47:11;100213.19;;;0.50;81.42
21273;BME280;36726;52.328;10.552;2022-11-20T02:49:38;100213.06;;;0.47;81.99
21273;BME280;36726;52.328;10.552;2022-11-20T02:52:05;100213.06;;;0.47;81.84
21273;BME280;36726;52.328;10.552;2022-11-20T02:54:31;100212.09;;;0.45;81.88
21273;BME280;36726;52.328;10.552;2022-11-20T02:56:58;100209.44;;;0.43;82.14
21273;BME280;36726;52.328;10.552;2022-11-20T02:59:25;100204.22;;;0.43;81.65
21273;BME280;36726;52.328;10.552;2022-11-20T03:01:52;100200.81;;;0.44;81.87
21273;BME280;36726;52.328;10.552;2022-11-20T03:04:18;100201.63;;;0.43;81.94
21273;BME280;36726;52.328;10.552;2022-11-20T03:06:45;100209.28;;;0.40;81.56
21273;BME280;36726;52.328;10.552;2022-11-20T03:09:12;100201.41;;;0.39;81.52
21273;BME280;36726;52.328;10.552;2022-11-20T03:11:38;100197.09;;;0.39;81.92
21273;BME280;36726;52.328;10.552;2022-11-20T03:14:05;100202.38;;;0.41;81.81
21273;BME280;36726;52.328;10.552;2022-11-20T03:16:32;100202.44;;;0.42;82.11
21273;BME280;36726;52.328;10.552;2022-11-20T03:19:00;100199.16;;;0.46;82.28
21273;BME280;36726;52.328;10.552;2022-11-20T03:21:26;100200.13;;;0.48;81.95
21273;BME280;36726;52.328;10.552;2022-11-20T03:23:54;100195.00;;;0.50;82.29
21273;BME280;36726;52.328;10.552;2022-11-20T03:26:23;100193.13;;;0.47;81.68
21273;BME280;36726;52.328;10.552;2022-11-20T03:28:52;100196.63;;;0.48;81.68
21273;BME280;36726;52.328;10.552;2022-11-20T03:31:22;100192.16;;;0.45;81.85
21273;BME280;36726;52.328;10.552;2022-11-20T03:33:49;100203.41;;;0.44;82.03
21273;BME280;36726;52.328;10.552;2022-11-20T03:36:17;100197.22;;;0.42;81.68
21273;BME280;36726;52.328;10.552;2022-11-20T03:38:44;100189.28;;;0.39;82.04
21273;BME280;36726;52.328;10.552;2022-11-20T03:41:16;100190.78;;;0.34;81.63
21273;BME280;36726;52.328;10.552;2022-11-20T03:43:57;100198.31;;;0.28;81.78
21273;BME280;36726;52.328;10.552;2022-11-20T03:46:24;100190.13;;;0.21;81.95
21273;BME280;36726;52.328;10.552;2022-11-20T03:48:51;100181.09;;;0.13;81.72
21273;BME280;36726;52.328;10.552;2022-11-20T03:51:20;100196.31;;;0.05;82.02
21273;BME280;36726;52.328;10.552;2022-11-20T03:53:49;100194.09;;;-0.05;81.54
21273;BME280;36726;52.328;10.552;2022-11-20T03:56:18;100191.81;;;-0.17;81.95
21273;BME280;36726;52.328;10.552;2022-11-20T03:58:45;100192.22;;;-0.25;81.75
21273;BME280;36726;52.328;10.552;2022-11-20T04:01:17;100181.38;;;-0.34;82.63
21273;BME280;36726;52.328;10.552;2022-11-20T04:03:45;100179.47;;;-0.38;83.01
21273;BME280;36726;52.328;10.552;2022-11-20T04:06:14;100180.91;;;-0.43;82.90
21273;BME280;36726;52.328;10.552;2022-11-20T04:08:42;100179.00;;;-0.47;83.41
21273;BME280;36726;52.328;10.552;2022-11-20T04:13:37;100172.00;;;-0.48;84.06
21273;BME280;36726;52.328;10.552;2022-11-20T04:16:05;100164.97;;;-0.51;83.76
21273;BME280;36726;52.328;10.552;2022-11-20T04:18:32;100170.25;;;-0.49;83.94
21273;BME280;36726;52.328;10.552;2022-11-20T04:20:59;100169.41;;;-0.48;84.11
21273;BME280;36726;52.328;10.552;2022-11-20T04:23:26;100160.00;;;-0.46;83.51
21273;BME280;36726;52.328;10.552;2022-11-20T04:25:54;100168.69;;;-0.46;83.91
21273;BME280;36726;52.328;10.552;2022-11-20T04:28:23;100156.50;;;-0.47;83.56
21273;BME280;36726;52.328;10.552;2022-11-20T04:30:50;100153.19;;;-0.44;83.92
21273;BME280;36726;52.328;10.552;2022-11-20T04:33:16;100156.75;;;-0.42;84.11
21273;BME280;36726;52.328;10.552;2022-11-20T04:35:46;100161.94;;;-0.42;83.96
21273;BME280;36726;52.328;10.552;2022-11-20T04:38:13;100157.53;;;-0.43;84.18
21273;BME280;36726;52.328;10.552;2022-11-20T04:40:40;100150.66;;;-0.43;84.30
21273;BME280;36726;52.328;10.552;2022-11-20T04:43:06;100150.66;;;-0.43;84.17
21273;BME280;36726;52.328;10.552;2022-11-20T04:45:34;100157.72;;;-0.40;83.82
21273;BME280;36726;52.328;10.552;2022-11-20T04:48:00;100152.59;;;-0.39;83.86
21273;BME280;36726;52.328;10.552;2022-11-20T04:50:27;100154.53;;;-0.35;83.56
21273;BME280;36726;52.328;10.552;2022-11-20T04:52:54;100159.13;;;-0.29;83.69
21273;BME280;36726;52.328;10.552;2022-11-20T04:55:20;100154.13;;;-0.25;83.46
21273;BME280;36726;52.328;10.552;2022-11-20T04:57:50;100160.44;;;-0.20;83.79
21273;BME280;36726;52.328;10.552;2022-11-20T05:00:17;100147.63;;;-0.17;83.47
21273;BME280;36726;52.328;10.552;2022-11-20T05:02:44;100144.31;;;-0.13;82.92
21273;BME280;36726;52.328;10.552;2022-11-20T05:05:10;100144.56;;;-0.08;83.17
21273;BME280;36726;52.328;10.552;2022-11-20T05:07:37;100141.28;;;-0.04;82.77
21273;BME280;36726;52.328;10.552;2022-11-20T05:10:04;100155.41;;;0.01;82.81
21273;BME280;36726;52.328;10.552;2022-11-20T05:12:31;100146.94;;;0.05;82.64
21273;BME280;36726;52.328;10.552;2022-11-20T05:14:58;100150.50;;;0.07;82.87
21273;BME280;36726;52.328;10.552;2022-11-20T05:17:24;100135.94;;;0.11;82.89
21273;BME280;36726;52.328;10.552;2022-11-20T05:19:51;100138.72;;;0.15;82.46
21273;BME280;36726;52.328;10.552;2022-11-20T05:22:18;100137.16;;;0.19;82.51
21273;BME280;36726;52.328;10.552;2022-11-20T05:24:45;100144.34;;;0.24;82.82
21273;BME280;36726;52.328;10.552;2022-11-20T05:27:12;100139.28;;;0.27;82.12
21273;BME280;36726;52.328;10.552;2022-11-20T05:29:38;100135.03;;;0.29;82.50
21273;BME280;36726;52.328;10.552;2022-11-20T05:32:05;100133.47;;;0.33;82.13
21273;BME280;36726;52.328;10.552;2022-11-20T05:34:33;100125.91;;;0.37;82.38
21273;BME280;36726;52.328;10.552;2022-11-20T05:39:12;100115.78;;;0.43;82.39
21273;BME280;36726;52.328;10.552;2022-11-20T05:41:38;100124.53;;;0.45;81.97
21273;BME280;36726;52.328;10.552;2022-11-20T05:44:04;100128.69;;;0.42;81.18
21273;BME280;36726;52.328;10.552;2022-11-20T05:46:30;100146.84;;;0.40;80.43
21273;BME280;36726;52.328;10.552;2022-11-20T05:48:57;100144.03;;;0.36;80.92
21273;BME280;36726;52.328;10.552;2022-11-20T05:51:24;100145.63;;;0.32;81.25
21273;BME280;36726;52.328;10.552;2022-11-20T05:53:50;100129.03;;;0.30;81.20
21273;BME280;36726;52.328;10.552;2022-11-20T05:56:19;100142.13;;;0.32;81.02
21273;BME280;36726;52.328;10.552;2022-11-20T05:58:46;100132.44;;;0.29;80.69
21273;BME280;36726;52.328;10.552;2022-11-20T06:03:54;100119.44;;;0.29;81.69
21273;BME280;36726;52.328;10.552;2022-11-20T06:06:20;100123.06;;;0.33;81.18
21273;BME280;36726;52.328;10.552;2022-11-20T06:08:47;100124.81;;;0.32;81.07
21273;BME280;36726;52.328;10.552;2022-11-20T06:11:14;100123.16;;;0.34;81.33
21273;BME280;36726;52.328;10.552;2022-11-20T06:13:40;100120.69;;;0.37;81.60
21273;BME280;36726;52.328;10.552;2022-11-20T06:16:09;100117.44;;;0.41;81.68
21273;BME280;36726;52.328;10.552;2022-11-20T06:18:35;100123.59;;;0.43;81.82
21273;BME280;36726;52.328;10.552;2022-11-20T06:21:15;100114.00;;;0.42;81.10
21273;BME280;36726;52.328;10.552;2022-11-20T06:23:42;100119.31;;;0.45;81.60
21273;BME280;36726;52.328;10.552;2022-11-20T06:26:24;100121.25;;;0.49;81.64
21273;BME280;36726;52.328;10.552;2022-11-20T06:28:51;100126.44;;;0.49;81.56
21273;BME280;36726;52.328;10.552;2022-11-20T06:31:20;100110.72;;;0.46;81.21
21273;BME280;36726;52.328;10.552;2022-11-20T06:33:47;100104.53;;;0.44;81.34
21273;BME280;36726;52.328;10.552;2022-11-20T06:36:15;100109.88;;;0.47;81.48
21273;BME280;36726;52.328;10.552;2022-11-20T06:38:41;100110.72;;;0.46;81.23
21273;BME280;36726;52.328;10.552;2022-11-20T06:41:16;100108.16;;;0.48;81.32
21273;BME280;36726;52.328;10.552;2022-11-20T06:43:43;100099.63;;;0.50;81.10
21273;BME280;36726;52.328;10.552;2022-11-20T06:46:11;100103.03;;;0.49;81.29
21273;BME280;36726;52.328;10.552;2022-11-20T06:48:39;100113.59;;;0.52;81.29
21273;BME280;36726;52.328;10.552;2022-11-20T06:51:07;100112.56;;;0.49;80.77
21273;BME280;36726;52.328;10.552;2022-11-20T06:53:35;100107.28;;;0.47;80.65
21273;BME280;36726;52.328;10.552;2022-11-20T06:56:02;100104.75;;;0.49;81.00
21273;BME280;36726;52.328;10.552;2022-11-20T06:58:31;100100.50;;;0.51;80.81
21273;BME280;36726;52.328;10.552;2022-11-20T07:00:59;100097.22;;;0.55;80.88
21273;BME280;36726;52.328;10.552;2022-11-20T07:03:26;100101.75;;;0.59;81.12
21273;BME280;36726;52.328;10.552;2022-11-20T07:05:56;100099.19;;;0.60;81.46
21273;BME280;36726;52.328;10.552;2022-11-20T07:08:23;100103.72;;;0.64;81.33
21273;BME280;36726;52.328;10.552;2022-11-20T07:10:50;100097.63;;;0.64;80.61
21273;BME280;36726;52.328;10.552;2022-11-20T07:13:17;100092.22;;;0.59;80.63
21273;BME280;36726;52.328;10.552;2022-11-20T07:15:44;100097.28;;;0.56;80.41
21273;BME280;36726;52.328;10.552;2022-11-20T07:18:10;100090.25;;;0.54;80.29
21273;BME280;36726;52.328;10.552;2022-11-20T07:20:37;100091.09;;;0.54;81.04
21273;BME280;36726;52.328;10.552;2022-11-20T07:23:04;100097.28;;;0.56;80.41
21273;BME280;36726;52.328;10.552;2022-11-20T07:25:31;100097.50;;;0.61;80.65
21273;BME280;36726;52.328;10.552;2022-11-20T07:27:58;100096.88;;;0.66;80.92
21273;BME280;36726;52.328;10.552;2022-11-20T07:30:26;100103.09;;;0.70;80.92
21273;BME280;36726;52.328;10.552;2022-11-20T07:32:54;100106.59;;;0.70;80.56
21273;BME280;36726;52.328;10.552;2022-11-20T07:35:22;100099.59;;;0.69;80.21
21273;BME280;36726;52.328;10.552;2022-11-20T07:37:49;100107.47;;;0.71;80.08
21273;BME280;36726;52.328;10.552;2022-11-20T07:40:17;100098.16;;;0.76;80.08
21273;BME280;36726;52.328;10.552;2022-11-20T07:42:48;100100.00;;;0.78;80.19
21273;BME280;36726;52.328;10.552;2022-11-20T07:45:16;100094.81;;;0.78;80.03
21273;BME280;36726;52.328;10.552;2022-11-20T07:47:43;100095.03;;;0.83;79.77
21273;BME280;36726;52.328;10.552;2022-11-20T07:50:10;100098.75;;;0.89;79.58
21273;BME280;36726;52.328;10.552;2022-11-20T07:52:37;100097.75;;;0.86;79.38
21273;BME280;36726;52.328;10.552;2022-11-20T07:55:04;100101.94;;;0.82;78.79
21273;BME280;36726;52.328;10.552;2022-11-20T07:57:31;100101.16;;;0.85;78.35
21273;BME280;36726;52.328;10.552;2022-11-20T07:59:58;100098.66;;;0.86;78.52
21273;BME280;36726;52.328;10.552;2022-11-20T08:02:25;100097.81;;;0.87;78.23
21273;BME280;36726;52.328;10.552;2022-11-20T08:04:51;100097.81;;;0.87;77.57
21273;BME280;36726;52.328;10.552;2022-11-20T08:07:18;100096.03;;;0.86;77.25
21273;BME280;36726;52.328;10.552;2022-11-20T08:09:45;100098.66;;;0.86;77.13
21273;BME280;36726;52.328;10.552;2022-11-20T08:12:19;100092.66;;;0.89;77.44
21273;BME280;36726;52.328;10.552;2022-11-20T08:15:05;100097.31;;;0.96;77.51
21273;BME280;36726;52.328;10.552;2022-11-20T08:17:38;100097.31;;;0.96;77.25
21273;BME280;36726;52.328;10.552;2022-11-20T08:20:05;100105.06;;;0.94;76.53
21273;BME280;36726;52.328;10.552;2022-11-20T08:22:32;100105.88;;;0.93;76.88
21273;BME280;36726;52.328;10.552;2022-11-20T08:24:59;100103.41;;;0.96;76.92
21273;BME280;36726;52.328;10.552;2022-11-20T08:27:25;100100.13;;;1.00;76.54
21273;BME280;36726;52.328;10.552;2022-11-20T08:29:52;100101.19;;;1.05;77.06
21273;BME280;36726;52.328;10.552;2022-11-20T08:32:19;100106.53;;;1.08;76.39
21273;BME280;36726;52.328;10.552;2022-11-20T08:34:45;100101.47;;;1.12;76.42
21273;BME280;36726;52.328;10.552;2022-11-20T08:37:12;100101.59;;;1.15;76.23
21273;BME280;36726;52.328;10.552;2022-11-20T08:39:39;100103.50;;;1.19;76.00
21273;BME280;36726;52.328;10.552;2022-11-20T08:42:08;100102.94;;;1.26;76.44
21273;BME280;36726;52.328;10.552;2022-11-20T08:44:35;100103.88;;;1.28;75.46
21273;BME280;36726;52.328;10.552;2022-11-20T08:47:02;100104.84;;;1.30;74.49
21273;BME280;36726;52.328;10.552;2022-11-20T08:49:28;100098.78;;;1.31;75.20
21273;BME280;36726;52.328;10.552;2022-11-20T08:51:56;100099.06;;;1.37;75.45
21273;BME280;36726;52.328;10.552;2022-11-20T08:54:24;100093.91;;;1.38;74.66
21273;BME280;36726;52.328;10.552;2022-11-20T08:56:51;100092.31;;;1.42;75.47
21273;BME280;36726;52.328;10.552;2022-11-20T08:59:18;100097.63;;;1.45;75.22
21273;BME280;36726;52.328;10.552;2022-11-20T09:02:05;100086.19;;;1.41;75.17
21273;BME280;36726;52.328;10.552;2022-11-20T09:04:32;100090.53;;;1.41;74.43
21273;BME280;36726;52.328;10.552;2022-11-20T09:07:00;100088.88;;;1.43;74.04
21273;BME280;36726;52.328;10.552;2022-11-20T09:09:28;100087.22;;;1.45;73.36
21273;BME280;36726;52.328;10.552;2022-11-20T09:11:55;100083.91;;;1.49;73.98
21273;BME280;36726;52.328;10.552;2022-11-20T09:14:22;100083.38;;;1.57;73.94
21273;BME280;36726;52.328;10.552;2022-11-20T09:16:51;100082.75;;;1.63;73.49
21273;BME280;36726;52.328;10.552;2022-11-20T09:19:18;100091.56;;;1.66;73.18
21273;BME280;36726;52.328;10.552;2022-11-20T09:22:05;100077.78;;;1.69;72.89
21273;BME280;36726;52.328;10.552;2022-11-20T09:24:32;100078.75;;;1.71;72.50
21273;BME280;36726;52.328;10.552;2022-11-20T09:27:01;100086.56;;;1.71;72.21
21273;BME280;36726;52.328;10.552;2022-11-20T09:29:29;100072.81;;;1.75;72.61
21273;BME280;36726;52.328;10.552;2022-11-20T09:31:56;100078.16;;;1.78;71.38
21273;BME280;36726;52.328;10.552;2022-11-20T09:34:23;100082.63;;;1.80;71.75
21273;BME280;36726;52.328;10.552;2022-11-20T09:36:50;100085.38;;;1.85;70.90
21273;BME280;36726;52.328;10.552;2022-11-20T09:39:17;100080.28;;;1.88;70.92
21273;BME280;36726;52.328;10.552;2022-11-20T09:44:31;100080.78;;;2.00;71.74
21273;BME280;36726;52.328;10.552;2022-11-20T09:47:10;100067.03;;;2.04;71.70
21273;BME280;36726;52.328;10.552;2022-11-20T09:52:36;100072.47;;;2.10;72.30
21273;BME280;36726;52.328;10.552;2022-11-20T09:55:09;100071.84;;;2.17;71.63
21273;BME280;36726;52.328;10.552;2022-11-20T09:57:40;100070.66;;;2.31;72.14
21273;BME280;36726;52.328;10.552;2022-11-20T10:00:12;100074.63;;;2.44;71.85
21273;BME280;36726;52.328;10.552;2022-11-20T10:02:48;100060.06;;;2.50;71.00
21273;BME280;36726;52.328;10.552;2022-11-20T10:05:22;100051.47;;;2.53;71.40
21273;BME280;36726;52.328;10.552;2022-11-20T10:07:55;100057.75;;;2.58;70.96
21273;BME280;36726;52.328;10.552;2022-11-20T10:13:12;100069.75;;;2.53;68.49
21273;BME280;36726;52.328;10.552;2022-11-20T10:21:38;100056.06;;;2.60;69.01
21273;BME280;36726;52.328;10.552;2022-11-20T10:29:37;100057.56;;;2.53;68.13
21273;BME280;36726;52.328;10.552;2022-11-20T10:32:16;100056.50;;;2.48;67.54
21273;BME280;36726;52.328;10.552;2022-11-20T10:34:56;100047.72;;;2.46;67.86
21273;BME280;36726;52.328;10.552;2022-11-20T10:37:26;100049.63;;;2.50;68.66
21273;BME280;36726;52.328;10.552;2022-11-20T10:40:09;100050.56;;;2.52;68.45
21273;BME280;36726;52.328;10.552;2022-11-20T10:42:47;100046.91;;;2.47;68.35
21273;BME280;36726;52.328;10.552;2022-11-20T10:50:40;100045.50;;;2.33;68.68
21273;BME280;36726;52.328;10.552;2022-11-20T10:56:21;100037.28;;;2.46;68.76
21273;BME280;36726;52.328;10.552;2022-11-20T11:01:24;100040.53;;;2.39;68.64
21273;BME280;36726;52.328;10.552;2022-11-20T11:03:55;100030.25;;;2.20;69.87
21273;BME280;36726;52.328;10.552;2022-11-20T11:06:42;100044.06;;;2.18;70.40
21273;BME280;36726;52.328;10.552;2022-11-20T11:09:18;100046.72;;;2.19;70.36
21273;BME280;36726;52.328;10.552;2022-11-20T11:11:48;100040.69;;;2.20;70.43
21273;BME280;36726;52.328;10.552;2022-11-20T11:14:15;100042.69;;;2.27;71.24
21273;BME280;36726;52.328;10.552;2022-11-20T11:16:53;100039.41;;;2.33;70.95
21273;BME280;36726;52.328;10.552;2022-11-20T11:19:20;100029.94;;;2.35;70.43
21273;BME280;36726;52.328;10.552;2022-11-20T11:21:50;100025.72;;;2.38;71.17
21273;BME280;36726;52.328;10.552;2022-11-20T11:24:29;100026.84;;;2.46;70.66
21273;BME280;36726;52.328;10.552;2022-11-20T11:27:13;100015.06;;;2.57;69.96
21273;BME280;36726;52.328;10.552;2022-11-20T11:29:43;100015.50;;;2.69;71.29
21273;BME280;36726;52.328;10.552;2022-11-20T11:32:18;100022.84;;;2.79;70.16
21273;BME280;36726;52.328;10.552;2022-11-20T11:35:00;100023.88;;;2.84;69.96
21273;BME280;36726;52.328;10.552;2022-11-20T11:37:33;100021.56;;;2.93;70.45
21273;BME280;36726;52.328;10.552;2022-11-20T11:40:03;100016.34;;;2.93;69.54
21273;BME280;36726;52.328;10.552;2022-11-20T11:42:54;100013.84;;;2.96;70.39
21273;BME280;36726;52.328;10.552;2022-11-20T11:45:21;100015.44;;;2.93;69.96
21273;BME280;36726;52.328;10.552;2022-11-20T11:47:50;100004.75;;;2.85;69.61
21273;BME280;36726;52.328;10.552;2022-11-20T11:50:21;100019.38;;;2.80;69.68
21273;BME280;36726;52.328;10.552;2022-11-20T11:53:11;100019.28;;;2.77;69.69
21273;BME280;36726;52.328;10.552;2022-11-20T11:56:05;100018.38;;;2.77;70.24
21273;BME280;36726;52.328;10.552;2022-11-20T11:58:49;100013.16;;;2.77;69.17
21273;BME280;36726;52.328;10.552;2022-11-20T12:04:00;100005.19;;;2.97;69.80
21273;BME280;36726;52.328;10.552;2022-11-20T12:06:30;100001.88;;;3.03;68.75
21273;BME280;36726;52.328;10.552;2022-11-20T12:09:04;100005.75;;;3.14;68.75
21273;BME280;36726;52.328;10.552;2022-11-20T12:11:43;99998.53;;;3.34;67.89
21273;BME280;36726;52.328;10.552;2022-11-20T12:14:38;99999.00;;;3.49;67.15
21273;BME280;36726;52.328;10.552;2022-11-20T12:17:10;100009.03;;;3.62;67.06
21273;BME280;36726;52.328;10.552;2022-11-20T12:19:37;100000.25;;;3.60;67.36
21273;BME280;36726;52.328;10.552;2022-11-20T12:22:06;99991.38;;;3.55;66.77
21273;BME280;36726;52.328;10.552;2022-11-20T12:36:02;99986.56;;;3.68;65.42
21273;BME280;36726;52.328;10.552;2022-11-20T12:43:38;99979.13;;;3.82;65.23
21273;BME280;36726;52.328;10.552;2022-11-20T12:46:51;99982.50;;;3.78;64.18
21273;BME280;36726;52.328;10.552;2022-11-20T12:49:38;99982.06;;;3.63;64.77
21273;BME280;36726;52.328;10.552;2022-11-20T12:52:30;99990.50;;;3.56;64.89
21273;BME280;36726;52.328;10.552;2022-11-20T12:55:32;99983.44;;;3.52;65.95
21273;BME280;36726;52.328;10.552;2022-11-20T13:00:58;99977.94;;;3.43;66.84
21273;BME280;36726;52.328;10.552;2022-11-20T13:03:50;99976.13;;;3.42;66.93
21273;BME280;36726;52.328;10.552;2022-11-20T13:06:19;99973.63;;;3.45;66.79
21273;BME280;36726;52.328;10.552;2022-11-20T13:08:55;99974.66;;;3.50;65.75
21273;BME280;36726;52.328;10.552;2022-11-20T13:11:39;99963.56;;;3.57;65.90
21273;BME280;36726;52.328;10.552;2022-11-20T13:14:39;99967.19;;;3.62;65.70
21273;BME280;36726;52.328;10.552;2022-11-20T13:17:16;99968.22;;;3.67;65.64
21273;BME280;36726;52.328;10.552;2022-11-20T13:19:53;99964.72;;;3.66;65.97
21273;BME280;36726;52.328;10.552;2022-11-20T13:22:29;99955.00;;;3.62;65.82
21273;BME280;36726;52.328;10.552;2022-11-20T13:24:56;99971.41;;;3.57;65.32
21273;BME280;36726;52.328;10.552;2022-11-20T13:27:23;99964.38;;;3.56;65.35
21273;BME280;36726;52.328;10.552;2022-11-20T13:30:14;99961.91;;;3.60;64.73
21273;BME280;36726;52.328;10.552;2022-11-20T13:32:55;99964.22;;;3.50;64.96
21273;BME280;36726;52.328;10.552;2022-11-20T13:35:34;99969.94;;;3.38;65.45
21273;BME280;36726;52.328;10.552;2022-11-20T13:38:13;99958.28;;;3.29;66.02
21273;BME280;36726;52.328;10.552;2022-11-20T13:40:55;99959.69;;;3.17;66.26
21273;BME280;36726;52.328;10.552;2022-11-20T13:46:00;99958.00;;;2.93;66.54
21273;BME280;36726;52.328;10.552;2022-11-20T13:48:33;99964.66;;;2.83;67.21
21273;BME280;36726;52.328;10.552;2022-11-20T13:54:09;99955.44;;;2.69;67.94
21273;BME280;36726;52.328;10.552;2022-11-20T13:59:29;99964.59;;;2.57;68.44
21273;BME280;36726;52.328;10.552;2022-11-20T14:02:00;99958.31;;;2.52;68.51
21273;BME280;36726;52.328;10.552;2022-11-20T14:04:33;99943.44;;;2.49;68.39
21273;BME280;36726;52.328;10.552;2022-11-20T14:07:05;99949.53;;;2.50;68.96
21273;BME280;36726;52.328;10.552;2022-11-20T14:09:33;99950.41;;;2.49;68.79
21273;BME280;36726;52.328;10.552;2022-11-20T14:12:02;99951.22;;;2.48;69.31
21273;BME280;36726;52.328;10.552;2022-11-20T14:14:30;99944.28;;;2.48;69.71
21273;BME280;36726;52.328;10.552;2022-11-20T14:20:02;99940.00;;;2.50;70.27
21273;BME280;36726;52.328;10.552;2022-11-20T14:22:30;99944.31;;;2.50;70.20
21273;BME280;36726;52.328;10.552;2022-11-20T14:27:28;99943.44;;;2.49;70.85
21273;BME280;36726;52.328;10.552;2022-11-20T14:29:55;99934.78;;;2.50;70.98